createdAt,value
2019-01-06T00:02:07.956Z,100230.89
2019-01-06T00:04:59.421Z,100226.50
2019-01-06T00:07:54.957Z,100228.78
2019-01-06T00:10:45.626Z,100225.34
2019-01-06T00:13:34.070Z,100223.02
2019-01-06T00:16:40.824Z,100214.66
2019-01-06T00:19:35.950Z,100215.62
2019-01-06T00:22:27.361Z,100209.51
2019-01-06T00:25:15.816Z,100211.68
2019-01-06T00:28:10.890Z,100211.28
2019-01-06T00:30:53.390Z,100210.70
2019-01-06T00:33:40.921Z,100212.59
2019-01-06T00:36:28.103Z,100223.71
2019-01-06T00:39:16.546Z,100219.41
2019-01-06T00:42:11.681Z,100232.11
2019-01-06T00:45:12.821Z,100229.61
2019-01-06T00:48:00.064Z,100226.67
2019-01-06T00:50:47.841Z,100227.95
2019-01-06T00:53:56.477Z,100237.00
2019-01-06T00:56:51.637Z,100237.96
2019-01-06T00:59:49.572Z,100244.95
2019-01-06T01:02:44.756Z,100250.56
2019-01-06T01:05:33.733Z,100253.58
2019-01-06T01:08:40.979Z,100258.34
2019-01-06T01:11:27.935Z,100258.91
2019-01-06T01:14:14.402Z,100260.06
2019-01-06T01:17:03.154Z,100259.70
2019-01-06T01:19:50.519Z,100262.59
2019-01-06T01:22:45.266Z,100266.02
2019-01-06T01:25:49.250Z,100262.07
2019-01-06T01:28:41.845Z,100261.69
2019-01-06T01:31:36.978Z,100256.02
2019-01-06T01:34:42.124Z,100259.45
2019-01-06T01:37:30.202Z,100257.38
2019-01-06T01:40:18.335Z,100258.00
2019-01-06T01:43:16.062Z,100265.68
2019-01-06T01:46:04.015Z,100274.13
2019-01-06T01:48:51.308Z,100254.70
2019-01-06T01:51:48.555Z,100251.26
2019-01-06T01:54:29.586Z,100264.01
2019-01-06T01:57:30.250Z,100262.55
2019-01-06T02:00:29.646Z,100264.70
2019-01-06T02:03:21.687Z,100266.48
2019-01-06T02:06:25.756Z,100264.31
2019-01-06T02:09:26.785Z,100262.29
2019-01-06T02:12:18.379Z,100263.50
2019-01-06T02:15:06.334Z,100264.36
2019-01-06T02:17:54.104Z,100257.02
2019-01-06T02:20:52.183Z,100263.67
2019-01-06T02:23:40.325Z,100254.61
2019-01-06T02:26:31.768Z,100263.52
2019-01-06T02:29:26.370Z,100260.89
2019-01-06T02:32:21.759Z,100264.48
2019-01-06T02:35:13.185Z,100261.55
2019-01-06T02:38:16.703Z,100269.03
2019-01-06T02:41:23.760Z,100271.61
2019-01-06T02:44:13.706Z,100270.16
2019-01-06T02:47:08.575Z,100269.53
2019-01-06T02:49:56.911Z,100264.18
2019-01-06T02:52:45.720Z,100258.72
2019-01-06T02:55:27.937Z,100264.37
2019-01-06T02:58:16.740Z,100260.83
2019-01-06T03:01:03.990Z,100266.66
2019-01-06T03:03:53.436Z,100268.79
2019-01-06T03:06:40.257Z,100272.16
2019-01-06T03:09:46.950Z,100270.04
2019-01-06T03:12:35.354Z,100267.77
2019-01-06T03:15:30.836Z,100266.50
2019-01-06T03:18:39.428Z,100262.62
2019-01-06T03:21:28.008Z,100262.50
2019-01-06T03:24:28.518Z,100247.63
2019-01-06T03:27:10.695Z,100247.88
2019-01-06T03:30:07.621Z,100250.61
2019-01-06T03:32:54.745Z,100241.81
2019-01-06T03:35:43.020Z,100249.12
2019-01-06T03:38:28.864Z,100251.88
2019-01-06T03:41:26.423Z,100245.40
2019-01-06T03:44:29.727Z,100245.45
2019-01-06T03:47:18.713Z,100248.20
2019-01-06T03:50:03.349Z,100250.61
2019-01-06T03:52:51.968Z,100249.97
2019-01-06T03:55:43.254Z,100260.08
2019-01-06T03:58:32.011Z,100260.95
2019-01-06T04:01:20.799Z,100250.42
2019-01-06T04:04:17.527Z,100246.02
2019-01-06T04:07:23.387Z,100252.29
2019-01-06T04:10:12.992Z,100245.61
2019-01-06T04:13:03.926Z,100244.92
2019-01-06T04:15:52.643Z,100245.31
2019-01-06T04:18:38.080Z,100244.52
2019-01-06T04:21:25.951Z,100248.45
2019-01-06T04:24:21.851Z,100252.34
2019-01-06T04:27:26.308Z,100244.06
2019-01-06T04:30:34.566Z,100246.69
2019-01-06T04:33:21.572Z,100252.70
2019-01-06T04:36:09.756Z,100245.83
2019-01-06T04:38:57.133Z,100249.76
2019-01-06T04:41:46.493Z,100247.48
2019-01-06T04:44:34.954Z,100239.64
2019-01-06T04:47:35.316Z,100247.89
2019-01-06T04:50:42.664Z,100243.48
2019-01-06T04:53:29.614Z,100242.74
2019-01-06T04:56:18.801Z,100239.14
2019-01-06T04:59:08.634Z,100235.59
2019-01-06T05:02:03.898Z,100237.42
2019-01-06T05:05:01.366Z,100237.48
2019-01-06T05:07:56.246Z,100232.46
2019-01-06T05:10:43.851Z,100234.73
2019-01-06T05:13:32.029Z,100227.20
2019-01-06T05:16:20.568Z,100241.31
2019-01-06T05:19:12.653Z,100232.97
2019-01-06T05:22:01.095Z,100234.83
2019-01-06T05:24:48.484Z,100234.69
2019-01-06T05:27:37.689Z,100237.47
2019-01-06T05:30:25.347Z,100240.91
2019-01-06T05:33:12.076Z,100244.52
2019-01-06T05:36:01.965Z,100240.05
2019-01-06T05:38:48.963Z,100244.05
2019-01-06T05:41:36.242Z,100244.92
2019-01-06T05:44:31.797Z,100244.56
2019-01-06T05:47:19.222Z,100245.83
2019-01-06T05:50:06.370Z,100257.09
2019-01-06T05:52:53.020Z,100250.63
2019-01-06T05:55:45.661Z,100253.25
2019-01-06T05:58:29.065Z,100255.89
2019-01-06T06:01:16.165Z,100260.59
2019-01-06T06:04:03.119Z,100260.59
2019-01-06T06:06:54.997Z,100268.58
2019-01-06T06:09:49.730Z,100266.88
2019-01-06T06:12:45.753Z,100275.82
2019-01-06T06:15:43.061Z,100271.61
2019-01-06T06:18:50.229Z,100273.38
2019-01-06T06:21:47.331Z,100276.38
2019-01-06T06:24:35.034Z,100284.37
2019-01-06T06:27:23.271Z,100289.22
2019-01-06T06:30:33.945Z,100282.55
2019-01-06T06:33:32.000Z,100280.72
2019-01-06T06:36:33.601Z,100282.19
2019-01-06T06:39:27.437Z,100279.36
2019-01-06T06:42:16.913Z,100283.36
2019-01-06T06:45:25.189Z,100284.72
2019-01-06T06:48:35.878Z,100286.28
2019-01-06T06:51:36.020Z,100289.42
2019-01-06T06:54:28.330Z,100288.21
2019-01-06T06:58:06.089Z,100296.55
2019-01-06T07:01:01.412Z,100295.14
2019-01-06T07:04:13.961Z,100301.77
2019-01-06T07:07:09.570Z,100315.28
2019-01-06T07:09:58.109Z,100311.84
2019-01-06T07:12:45.011Z,100316.14
2019-01-06T07:15:59.483Z,100316.59
2019-01-06T07:18:46.322Z,100319.23
2019-01-06T07:21:34.614Z,100324.99
2019-01-06T07:24:47.215Z,100331.20
2019-01-06T07:27:47.991Z,100333.44
2019-01-06T07:30:49.637Z,100339.20
2019-01-06T07:33:35.128Z,100351.30
2019-01-06T07:36:23.512Z,100359.84
2019-01-06T07:39:29.735Z,100366.92
2019-01-06T07:42:29.289Z,100365.70
2019-01-06T07:45:28.321Z,100381.62
2019-01-06T07:48:46.313Z,100382.98
2019-01-06T07:51:50.866Z,100388.55
2019-01-06T07:54:52.469Z,100387.84
2019-01-06T07:57:43.540Z,100397.91
2019-01-06T08:00:44.891Z,100397.77
2019-01-06T08:03:32.239Z,100400.39
2019-01-06T08:06:36.850Z,100405.42
2019-01-06T08:09:45.430Z,100404.93
2019-01-06T08:12:37.986Z,100412.86
2019-01-06T08:15:25.487Z,100409.02
2019-01-06T08:18:36.694Z,100413.91
2019-01-06T08:21:32.283Z,100417.03
2019-01-06T08:24:44.497Z,100418.36
2019-01-06T08:27:26.540Z,100424.58
2019-01-06T08:30:17.012Z,100435.85
2019-01-06T08:33:12.391Z,100429.19
2019-01-06T08:36:09.636Z,100434.41
2019-01-06T08:38:59.067Z,100437.89
2019-01-06T08:41:50.576Z,100437.80
2019-01-06T08:44:44.994Z,100441.30
2019-01-06T08:47:33.750Z,100444.30
2019-01-06T08:50:35.434Z,100441.80
2019-01-06T08:53:34.057Z,100443.93
2019-01-06T08:56:36.971Z,100447.50
2019-01-06T08:59:20.607Z,100449.96
2019-01-06T09:02:15.884Z,100451.77
2019-01-06T09:05:22.536Z,100455.77
2019-01-06T09:08:26.145Z,100454.63
2019-01-06T09:11:24.195Z,100450.31
2019-01-06T09:14:20.928Z,100456.05
2019-01-06T09:17:09.099Z,100460.30
2019-01-06T09:20:12.212Z,100458.98
2019-01-06T09:23:10.061Z,100458.98
2019-01-06T09:26:15.849Z,100462.39
2019-01-06T09:29:04.305Z,100461.53
2019-01-06T09:32:02.116Z,100457.44
2019-01-06T09:34:37.717Z,100472.32
2019-01-06T09:37:37.377Z,100480.17
2019-01-06T09:40:40.255Z,100478.81
2019-01-06T09:43:46.588Z,100484.06
2019-01-06T09:46:33.527Z,100479.48
2019-01-06T09:49:31.220Z,100478.63
2019-01-06T09:52:18.391Z,100481.48
2019-01-06T09:55:06.888Z,100477.98
2019-01-06T09:57:49.828Z,100475.66
2019-01-06T10:00:38.452Z,100475.66
2019-01-06T10:03:30.011Z,100470.00
2019-01-06T10:06:07.210Z,100474.42
2019-01-06T10:08:55.155Z,100480.50
2019-01-06T10:11:42.053Z,100478.63
2019-01-06T10:14:42.056Z,100470.69
2019-01-06T10:17:48.692Z,100470.88
2019-01-06T10:20:55.428Z,100468.11
2019-01-06T10:23:45.242Z,100462.33
2019-01-06T10:26:40.042Z,100466.12
2019-01-06T10:29:20.975Z,100465.22
2019-01-06T10:32:08.532Z,100464.86
2019-01-06T10:35:07.545Z,100462.02
2019-01-06T10:37:54.230Z,100464.05
2019-01-06T10:40:51.051Z,100464.34
2019-01-06T10:43:38.766Z,100458.45
2019-01-06T10:46:27.174Z,100459.12
2019-01-06T10:49:20.714Z,100458.44
2019-01-06T10:52:26.589Z,100457.00
2019-01-06T10:55:18.793Z,100447.63
2019-01-06T10:58:13.447Z,100454.91
2019-01-06T11:01:13.774Z,100456.22
2019-01-06T11:04:05.092Z,100451.81
2019-01-06T11:06:51.937Z,100448.67
2019-01-06T11:09:38.745Z,100449.94
2019-01-06T11:12:25.654Z,100448.31
2019-01-06T11:15:19.895Z,100448.72
2019-01-06T11:18:07.123Z,100447.92
2019-01-06T11:20:48.285Z,100456.93
2019-01-06T11:23:45.628Z,100452.16
2019-01-06T11:26:31.291Z,100457.56
2019-01-06T11:29:27.825Z,100460.09
2019-01-06T11:32:18.583Z,100460.02
2019-01-06T11:35:13.419Z,100460.72
2019-01-06T11:38:00.418Z,100452.06
2019-01-06T11:40:54.875Z,100450.11
2019-01-06T11:43:52.717Z,100444.77
2019-01-06T11:46:43.559Z,100442.61
2019-01-06T11:49:30.459Z,100442.25
2019-01-06T11:52:38.984Z,100441.84
2019-01-06T11:55:23.212Z,100439.61
2019-01-06T11:58:11.973Z,100436.16
2019-01-06T12:01:12.057Z,100427.39
2019-01-06T12:03:55.781Z,100428.94
2019-01-06T12:06:50.815Z,100431.34
2019-01-06T12:09:41.262Z,100428.38
2019-01-06T12:12:29.437Z,100424.13
2019-01-06T12:15:31.416Z,100426.77
2019-01-06T12:18:18.337Z,100426.77
2019-01-06T12:21:19.518Z,100426.26
2019-01-06T12:24:13.343Z,100428.36
2019-01-06T12:27:06.508Z,100434.98
2019-01-06T12:29:57.890Z,100428.95
2019-01-06T12:32:45.852Z,100422.17
2019-01-06T12:35:32.803Z,100432.27
2019-01-06T12:38:21.913Z,100431.58
2019-01-06T12:41:20.316Z,100427.09
2019-01-06T12:44:08.256Z,100428.47
2019-01-06T12:46:56.889Z,100430.58
2019-01-06T12:49:37.727Z,100426.38
2019-01-06T12:52:28.991Z,100425.20
2019-01-06T12:55:10.250Z,100431.45
2019-01-06T12:57:58.167Z,100432.30
2019-01-06T13:00:57.742Z,100428.66
2019-01-06T13:03:45.783Z,100439.36
2019-01-06T13:06:31.245Z,100436.86
2019-01-06T13:09:19.044Z,100435.54
2019-01-06T13:12:11.922Z,100438.51
2019-01-06T13:15:09.685Z,100447.41
2019-01-06T13:17:53.592Z,100443.63
2019-01-06T13:20:45.176Z,100446.80
2019-01-06T13:23:34.447Z,100453.33
2019-01-06T13:26:22.964Z,100455.97
2019-01-06T13:29:14.687Z,100456.81
2019-01-06T13:32:04.686Z,100453.66
2019-01-06T13:34:52.981Z,100457.29
2019-01-06T13:37:40.458Z,100453.50
2019-01-06T13:40:29.039Z,100456.59
2019-01-06T13:43:16.967Z,100468.47
2019-01-06T13:46:18.205Z,100465.59
2019-01-06T13:49:07.302Z,100466.50
2019-01-06T13:51:54.697Z,100472.58
2019-01-06T13:55:01.583Z,100469.09
2019-01-06T13:58:02.379Z,100480.55
2019-01-06T14:00:53.350Z,100479.00
2019-01-06T14:03:34.988Z,100479.59
2019-01-06T14:06:24.956Z,100482.48
2019-01-06T14:09:12.659Z,100486.97
2019-01-06T14:12:10.978Z,100483.83
2019-01-06T14:14:58.482Z,100491.03
2019-01-06T14:17:46.141Z,100490.06
2019-01-06T14:20:41.015Z,100500.20
2019-01-06T14:23:32.085Z,100504.59
2019-01-06T14:26:25.448Z,100504.59
2019-01-06T14:29:13.449Z,100515.75
2019-01-06T14:32:01.778Z,100518.05
2019-01-06T14:34:42.991Z,100516.02
2019-01-06T14:37:23.003Z,100525.00
2019-01-06T14:40:18.441Z,100522.96
2019-01-06T14:43:23.186Z,100530.11
2019-01-06T14:46:18.966Z,100519.27
2019-01-06T14:49:23.223Z,100534.06
2019-01-06T14:52:11.755Z,100527.73
2019-01-06T14:55:01.872Z,100538.77
2019-01-06T14:57:51.155Z,100536.91
2019-01-06T15:00:51.053Z,100543.67
2019-01-06T15:03:39.612Z,100544.83
2019-01-06T15:06:32.891Z,100544.33
2019-01-06T15:09:24.830Z,100542.24
2019-01-06T15:12:26.312Z,100552.52
2019-01-06T15:15:21.751Z,100546.08
2019-01-06T15:18:23.076Z,100554.63
2019-01-06T15:21:30.056Z,100549.98
2019-01-06T15:24:17.299Z,100550.91
2019-01-06T15:27:15.664Z,100557.53
2019-01-06T15:30:03.883Z,100552.84
2019-01-06T15:32:52.867Z,100560.84
2019-01-06T15:35:39.877Z,100562.20
2019-01-06T15:38:36.101Z,100572.72
2019-01-06T15:41:30.490Z,100567.55
2019-01-06T15:44:28.055Z,100575.04
2019-01-06T15:47:14.965Z,100572.53
2019-01-06T15:50:11.366Z,100570.48
2019-01-06T15:52:58.460Z,100576.66
2019-01-06T15:55:52.830Z,100573.23
2019-01-06T15:58:58.874Z,100570.61
2019-01-06T16:01:59.573Z,100577.11
2019-01-06T16:04:46.452Z,100569.79
2019-01-06T16:07:33.283Z,100570.78
2019-01-06T16:10:21.010Z,100573.78
2019-01-06T16:13:09.703Z,100569.51
2019-01-06T16:15:54.952Z,100570.50
2019-01-06T16:18:42.412Z,100577.53
2019-01-06T16:21:38.307Z,100585.00
2019-01-06T16:24:38.437Z,100584.63
2019-01-06T16:27:33.625Z,100588.21
2019-01-06T16:30:20.387Z,100592.16
2019-01-06T16:33:09.271Z,100589.97
2019-01-06T16:36:00.065Z,100582.99
2019-01-06T16:39:06.902Z,100591.45
2019-01-06T16:41:57.035Z,100595.77
2019-01-06T16:44:44.216Z,100598.03
2019-01-06T16:47:31.235Z,100598.48
2019-01-06T16:50:32.360Z,100594.54
2019-01-06T16:53:24.275Z,100605.05
2019-01-06T16:56:15.226Z,100601.98
2019-01-06T16:59:03.511Z,100603.94
2019-01-06T17:01:55.980Z,100603.74
2019-01-06T17:04:44.799Z,100610.95
2019-01-06T17:07:35.318Z,100613.59
2019-01-06T17:10:22.141Z,100609.80
2019-01-06T17:13:10.926Z,100610.66
2019-01-06T17:16:02.786Z,100612.09
2019-01-06T17:18:51.148Z,100613.36
2019-01-06T17:21:23.962Z,100608.11
2019-01-06T17:24:24.028Z,100609.87
2019-01-06T17:27:15.488Z,100600.63
2019-01-06T17:30:19.728Z,100611.16
2019-01-06T17:33:03.582Z,100606.49
2019-01-06T17:35:54.306Z,100606.49
2019-01-06T17:38:40.773Z,100603.79
2019-01-06T17:41:25.776Z,100610.73
2019-01-06T17:44:23.828Z,100612.69
2019-01-06T17:47:14.821Z,100612.65
2019-01-06T17:50:12.410Z,100613.92
2019-01-06T17:52:59.385Z,100610.84
2019-01-06T17:55:47.852Z,100619.52
2019-01-06T17:58:34.885Z,100618.81
2019-01-06T18:01:32.418Z,100618.64
2019-01-06T18:04:18.932Z,100618.04
2019-01-06T18:07:25.086Z,100620.46
2019-01-06T18:10:11.980Z,100620.83
2019-01-06T18:12:58.324Z,100619.52
2019-01-06T18:15:58.748Z,100614.30
2019-01-06T18:18:55.198Z,100621.40
2019-01-06T18:21:58.254Z,100618.70
2019-01-06T18:24:56.373Z,100617.91
2019-01-06T18:28:02.745Z,100618.39
2019-01-06T18:30:49.633Z,100617.98
2019-01-06T18:33:43.711Z,100616.59
2019-01-06T18:36:49.064Z,100620.13
2019-01-06T18:39:40.049Z,100615.77
2019-01-06T18:42:31.386Z,100614.83
2019-01-06T18:45:25.965Z,100605.88
2019-01-06T18:48:29.620Z,100609.74
2019-01-06T18:51:32.795Z,100605.80
2019-01-06T18:54:21.008Z,100597.57
2019-01-06T18:57:08.593Z,100595.84
2019-01-06T19:00:06.483Z,100603.24
2019-01-06T19:02:50.370Z,100597.16
2019-01-06T19:05:46.293Z,100610.30
2019-01-06T19:08:30.690Z,100606.86
2019-01-06T19:11:17.609Z,100613.40
2019-01-06T19:14:05.765Z,100617.87
2019-01-06T19:17:07.691Z,100614.00
2019-01-06T19:19:55.594Z,100619.59
2019-01-06T19:22:44.035Z,100623.28
2019-01-06T19:25:31.729Z,100621.92
2019-01-06T19:28:18.605Z,100619.34
2019-01-06T19:31:05.782Z,100621.48
2019-01-06T19:33:57.903Z,100623.35
2019-01-06T19:36:46.702Z,100625.19
2019-01-06T19:39:51.146Z,100627.82
2019-01-06T19:42:33.898Z,100632.63
2019-01-06T19:45:29.423Z,100635.89
2019-01-06T19:48:23.584Z,100639.27
2019-01-06T19:51:15.225Z,100648.09
2019-01-06T19:54:07.206Z,100644.91
2019-01-06T19:57:15.808Z,100650.05
2019-01-06T20:00:24.406Z,100648.63
2019-01-06T20:03:15.751Z,100650.40
2019-01-06T20:06:07.544Z,100646.11
2019-01-06T20:09:00.401Z,100647.31
2019-01-06T20:11:56.532Z,100639.54
2019-01-06T20:14:53.892Z,100650.88
2019-01-06T20:17:42.105Z,100642.66
2019-01-06T20:20:39.676Z,100647.02
2019-01-06T20:23:28.246Z,100647.84
2019-01-06T20:26:25.496Z,100646.08
2019-01-06T20:29:26.029Z,100649.67
2019-01-06T20:32:29.161Z,100649.98
2019-01-06T20:35:18.476Z,100655.80
2019-01-06T20:38:05.301Z,100660.23
2019-01-06T20:40:59.098Z,100658.47
2019-01-06T20:43:54.296Z,100656.66
2019-01-06T20:46:41.523Z,100661.09
2019-01-06T20:49:49.454Z,100660.75
2019-01-06T20:52:47.614Z,100652.42
2019-01-06T20:55:39.787Z,100648.92
2019-01-06T20:58:30.698Z,100648.52
2019-01-06T21:01:23.922Z,100649.89
2019-01-06T21:04:29.182Z,100648.44
2019-01-06T21:07:16.031Z,100645.88
2019-01-06T21:10:11.306Z,100643.77
2019-01-06T21:13:00.116Z,100643.33
2019-01-06T21:15:51.385Z,100654.73
2019-01-06T21:18:47.478Z,100654.29
2019-01-06T21:21:34.869Z,100656.61
2019-01-06T21:24:23.417Z,100665.32
2019-01-06T21:27:15.843Z,100667.05
2019-01-06T21:30:07.103Z,100667.88
2019-01-06T21:33:05.067Z,100662.31
2019-01-06T21:36:03.026Z,100662.34
2019-01-06T21:38:58.087Z,100661.90
2019-01-06T21:41:52.433Z,100665.42
2019-01-06T21:44:44.249Z,100661.55
2019-01-06T21:47:31.443Z,100666.77
2019-01-06T21:50:14.698Z,100667.23
2019-01-06T21:53:02.106Z,100666.77
2019-01-06T21:55:54.707Z,100662.00
2019-01-06T21:58:54.934Z,100656.33
2019-01-06T22:02:04.552Z,100654.16
2019-01-06T22:04:59.111Z,100655.05
2019-01-06T22:07:47.498Z,100658.58
2019-01-06T22:10:39.992Z,100654.73
2019-01-06T22:13:37.545Z,100650.34
2019-01-06T22:16:24.663Z,100652.11
2019-01-06T22:19:11.852Z,100651.70
2019-01-06T22:21:58.839Z,100650.73
2019-01-06T22:24:47.975Z,100657.30
2019-01-06T22:27:35.230Z,100649.80
2019-01-06T22:30:35.388Z,100649.83
2019-01-06T22:33:19.746Z,100649.07
2019-01-06T22:36:02.475Z,100653.33
2019-01-06T22:38:57.664Z,100647.79
2019-01-06T22:41:53.911Z,100650.73
2019-01-06T22:44:47.980Z,100654.22
2019-01-06T22:47:37.001Z,100655.54
2019-01-06T22:50:25.273Z,100646.38
2019-01-06T22:53:15.658Z,100656.47
2019-01-06T22:56:05.426Z,100654.22
2019-01-06T22:59:08.797Z,100649.45
2019-01-06T23:01:58.631Z,100647.69
2019-01-06T23:05:03.399Z,100645.12
2019-01-06T23:07:52.392Z,100646.44
2019-01-06T23:10:39.446Z,100653.46
2019-01-06T23:13:38.474Z,100655.19
2019-01-06T23:16:29.352Z,100654.39
2019-01-06T23:19:23.749Z,100656.98
2019-01-06T23:22:20.727Z,100653.49
2019-01-06T23:25:12.899Z,100657.47
2019-01-06T23:28:00.199Z,100650.42
2019-01-06T23:30:50.150Z,100656.92
2019-01-06T23:33:40.821Z,100666.11
2019-01-06T23:36:45.409Z,100660.86
2019-01-06T23:39:49.884Z,100665.80
2019-01-06T23:42:48.915Z,100675.38
2019-01-06T23:45:52.989Z,100666.66
2019-01-06T23:48:47.177Z,100675.44
2019-01-06T23:51:34.881Z,100667.11
2019-01-06T23:54:24.350Z,100666.28
2019-01-06T23:57:22.521Z,100671.37
